Jackson, Kentucky
Current Conditions -  °F | °C
As of 8:19 AM on Thursday 27 Nov 2014 (Local Time) from KJKL Reporting Station
Light Snow Light Snow  
Wind Chill: -5°   Ceiling: 600
Heat Index: -1°   Visibility: 2mi
Dew Point: -2°   Wind: 8mph
Humidity: 92%   Direction: 300°WNW
Pressure: 30.16"   Gusts: NA
Location:  37.55°N, 83.38°W
Report Text: KJKL 271319Z AUTO 30007KT 2SM -SN BR OVC006 M01/M02 A3016 RMK AO2 CIG 003V011 P0000 T10061017
Loading
Personal Weather Stations






























Interactive Weather Map New forecast layout! Learn more

10-Day Weather Forecast

Advertisements
Track Severe Weather on mobile